The Lakes, Nevada
Current Conditions -  °F | °C
As of 7:53 PM on Monday 22 Dec 2014 (Local Time) from KVGT Reporting Station
Clear Clear  
Wind Chill: 67°   Ceiling: Unl
Heat Index: 67°   Visibility: 10mi
Dew Point: 35°   Wind: 24mph
Humidity: 31%   Direction: 330°NNW
Pressure: 30.02"   Gusts: 33mph
Location:  36.14°N, 115.29°W
Report Text: KVGT 230353Z AUTO 33021G29KT 10SM CLR 19/02 A3002 RMK AO2 PK WND 33033/0324 SLP176 T01940017 TSNO
Loading
Personal Weather Stations






























Interactive Weather Map New forecast layout! Learn more

10-Day Weather Forecast

Advertisements
Track Severe Weather on mobile